sensor_id;sensor_type;location;lat;lon;timestamp;temperature;humidity
42965;DHT22;28604;51.204;22.552;2023-02-22T00:00:21;5.60;85.20
42965;DHT22;28604;51.204;22.552;2023-02-22T00:03:13;5.60;85.00
42965;DHT22;28604;51.204;22.552;2023-02-22T00:05:44;5.60;85.00
42965;DHT22;28604;51.204;22.552;2023-02-22T00:08:14;5.60;84.70
42965;DHT22;28604;51.204;22.552;2023-02-22T00:10:40;5.50;85.60
42965;DHT22;28604;51.204;22.552;2023-02-22T00:13:10;5.50;86.20
42965;DHT22;28604;51.204;22.552;2023-02-22T00:15:38;5.50;85.60
42965;DHT22;28604;51.204;22.552;2023-02-22T00:18:08;5.50;85.30
42965;DHT22;28604;51.204;22.552;2023-02-22T00:20:35;5.60;85.40
42965;DHT22;28604;51.204;22.552;2023-02-22T00:23:05;5.60;84.90
42965;DHT22;28604;51.204;22.552;2023-02-22T00:25:35;5.50;85.50
42965;DHT22;28604;51.204;22.552;2023-02-22T00:28:01;5.50;85.20
42965;DHT22;28604;51.204;22.552;2023-02-22T00:30:30;5.50;86.10
42965;DHT22;28604;51.204;22.552;2023-02-22T00:32:57;5.50;86.40
42965;DHT22;28604;51.204;22.552;2023-02-22T00:35:25;5.50;86.40
42965;DHT22;28604;51.204;22.552;2023-02-22T00:37:54;5.50;86.50
42965;DHT22;28604;51.204;22.552;2023-02-22T00:40:22;5.50;85.80
42965;DHT22;28604;51.204;22.552;2023-02-22T00:42:48;5.50;86.70
42965;DHT22;28604;51.204;22.552;2023-02-22T00:45:17;5.50;85.70
42965;DHT22;28604;51.204;22.552;2023-02-22T00:47:43;5.50;85.70
42965;DHT22;28604;51.204;22.552;2023-02-22T00:50:09;5.50;85.50
42965;DHT22;28604;51.204;22.552;2023-02-22T00:52:36;5.50;85.20
42965;DHT22;28604;51.204;22.552;2023-02-22T00:55:05;5.50;86.40
42965;DHT22;28604;51.204;22.552;2023-02-22T00:57:32;5.60;85.20
42965;DHT22;28604;51.204;22.552;2023-02-22T01:00:07;5.50;84.80
42965;DHT22;28604;51.204;22.552;2023-02-22T01:02:41;5.60;85.20
42965;DHT22;28604;51.204;22.552;2023-02-22T01:05:09;5.50;84.90
42965;DHT22;28604;51.204;22.552;2023-02-22T01:07:38;5.50;85.30
42965;DHT22;28604;51.204;22.552;2023-02-22T01:10:05;5.50;85.00
42965;DHT22;28604;51.204;22.552;2023-02-22T01:12:31;5.50;84.70
42965;DHT22;28604;51.204;22.552;2023-02-22T01:14:57;5.50;85.10
42965;DHT22;28604;51.204;22.552;2023-02-22T01:17:24;5.40;86.20
42965;DHT22;28604;51.204;22.552;2023-02-22T01:19:51;5.50;86.30
42965;DHT22;28604;51.204;22.552;2023-02-22T01:22:18;5.40;86.20
42965;DHT22;28604;51.204;22.552;2023-02-22T01:24:49;5.50;86.50
42965;DHT22;28604;51.204;22.552;2023-02-22T01:27:17;5.40;85.90
42965;DHT22;28604;51.204;22.552;2023-02-22T01:29:43;5.40;85.70
42965;DHT22;28604;51.204;22.552;2023-02-22T01:32:09;5.40;86.00
42965;DHT22;28604;51.204;22.552;2023-02-22T01:34:37;5.40;85.70
42965;DHT22;28604;51.204;22.552;2023-02-22T01:37:03;5.40;85.20
42965;DHT22;28604;51.204;22.552;2023-02-22T01:39:31;5.40;85.80
42965;DHT22;28604;51.204;22.552;2023-02-22T01:41:57;5.40;85.30
42965;DHT22;28604;51.204;22.552;2023-02-22T01:44:30;5.40;86.00
42965;DHT22;28604;51.204;22.552;2023-02-22T01:46:59;5.40;86.80
42965;DHT22;28604;51.204;22.552;2023-02-22T01:52:08;5.30;86.90
42965;DHT22;28604;51.204;22.552;2023-02-22T01:54:39;5.30;87.20
42965;DHT22;28604;51.204;22.552;2023-02-22T01:57:26;5.30;87.80
42965;DHT22;28604;51.204;22.552;2023-02-22T02:00:02;5.30;86.30
42965;DHT22;28604;51.204;22.552;2023-02-22T02:02:43;5.30;86.90
42965;DHT22;28604;51.204;22.552;2023-02-22T02:05:10;5.30;87.20
42965;DHT22;28604;51.204;22.552;2023-02-22T02:07:38;5.30;86.50
42965;DHT22;28604;51.204;22.552;2023-02-22T02:10:10;5.30;86.50
42965;DHT22;28604;51.204;22.552;2023-02-22T02:12:42;5.30;87.20
42965;DHT22;28604;51.204;22.552;2023-02-22T02:17:52;5.30;86.70
42965;DHT22;28604;51.204;22.552;2023-02-22T02:20:26;5.30;86.10
42965;DHT22;28604;51.204;22.552;2023-02-22T02:29:01;5.20;86.80
42965;DHT22;28604;51.204;22.552;2023-02-22T02:31:57;5.20;87.10
42965;DHT22;28604;51.204;22.552;2023-02-22T02:34:38;5.20;86.50
42965;DHT22;28604;51.204;22.552;2023-02-22T02:37:08;5.20;86.80
42965;DHT22;28604;51.204;22.552;2023-02-22T02:42:14;5.20;86.50
42965;DHT22;28604;51.204;22.552;2023-02-22T02:45:07;5.10;87.10
42965;DHT22;28604;51.204;22.552;2023-02-22T02:47:40;5.10;86.70
42965;DHT22;28604;51.204;22.552;2023-02-22T02:50:10;5.10;85.90
42965;DHT22;28604;51.204;22.552;2023-02-22T02:52:40;5.10;85.40
42965;DHT22;28604;51.204;22.552;2023-02-22T02:55:07;5.10;85.60
42965;DHT22;28604;51.204;22.552;2023-02-22T02:57:36;5.00;86.70
42965;DHT22;28604;51.204;22.552;2023-02-22T03:00:05;5.00;87.30
42965;DHT22;28604;51.204;22.552;2023-02-22T03:08:21;4.90;85.90
42965;DHT22;28604;51.204;22.552;2023-02-22T03:10:55;4.90;85.90
42965;DHT22;28604;51.204;22.552;2023-02-22T03:13:43;4.90;86.10
42965;DHT22;28604;51.204;22.552;2023-02-22T03:21:46;4.80;85.90
42965;DHT22;28604;51.204;22.552;2023-02-22T03:24:24;4.70;86.00
42965;DHT22;28604;51.204;22.552;2023-02-22T03:27:11;4.70;85.90
42965;DHT22;28604;51.204;22.552;2023-02-22T03:29:43;4.70;85.70
42965;DHT22;28604;51.204;22.552;2023-02-22T03:32:16;4.70;85.70
42965;DHT22;28604;51.204;22.552;2023-02-22T03:34:49;4.70;85.50
42965;DHT22;28604;51.204;22.552;2023-02-22T03:37:23;4.70;85.40
42965;DHT22;28604;51.204;22.552;2023-02-22T03:39:53;4.70;85.30
42965;DHT22;28604;51.204;22.552;2023-02-22T03:42:32;4.70;84.90
42965;DHT22;28604;51.204;22.552;2023-02-22T03:45:01;4.60;84.70
42965;DHT22;28604;51.204;22.552;2023-02-22T03:47:37;4.60;84.60
42965;DHT22;28604;51.204;22.552;2023-02-22T03:50:13;4.60;84.70
42965;DHT22;28604;51.204;22.552;2023-02-22T03:55:14;4.60;84.70
42965;DHT22;28604;51.204;22.552;2023-02-22T03:57:49;4.50;84.60
42965;DHT22;28604;51.204;22.552;2023-02-22T04:00:22;4.50;84.70
42965;DHT22;28604;51.204;22.552;2023-02-22T04:02:50;4.50;85.10
42965;DHT22;28604;51.204;22.552;2023-02-22T04:05:19;4.40;85.00
42965;DHT22;28604;51.204;22.552;2023-02-22T04:07:46;4.40;84.80
42965;DHT22;28604;51.204;22.552;2023-02-22T04:10:15;4.30;85.60
42965;DHT22;28604;51.204;22.552;2023-02-22T04:12:41;4.30;84.80
42965;DHT22;28604;51.204;22.552;2023-02-22T04:15:08;4.30;84.90
42965;DHT22;28604;51.204;22.552;2023-02-22T04:17:36;4.30;85.30
42965;DHT22;28604;51.204;22.552;2023-02-22T04:20:03;4.30;85.20
42965;DHT22;28604;51.204;22.552;2023-02-22T04:22:40;4.30;87.00
42965;DHT22;28604;51.204;22.552;2023-02-22T04:25:07;4.30;86.10
42965;DHT22;28604;51.204;22.552;2023-02-22T04:27:33;4.30;85.80
42965;DHT22;28604;51.204;22.552;2023-02-22T04:30:00;4.30;85.90
42965;DHT22;28604;51.204;22.552;2023-02-22T04:32:27;4.30;85.80
42965;DHT22;28604;51.204;22.552;2023-02-22T04:34:53;4.30;86.50
42965;DHT22;28604;51.204;22.552;2023-02-22T04:37:19;4.30;87.10
42965;DHT22;28604;51.204;22.552;2023-02-22T04:39:45;4.30;86.40
42965;DHT22;28604;51.204;22.552;2023-02-22T04:42:11;4.30;86.70
42965;DHT22;28604;51.204;22.552;2023-02-22T04:44:37;4.30;87.90
42965;DHT22;28604;51.204;22.552;2023-02-22T04:47:04;4.30;87.10
42965;DHT22;28604;51.204;22.552;2023-02-22T04:49:30;4.30;87.20
42965;DHT22;28604;51.204;22.552;2023-02-22T04:51:56;4.30;87.30
42965;DHT22;28604;51.204;22.552;2023-02-22T04:54:29;4.30;87.60
42965;DHT22;28604;51.204;22.552;2023-02-22T04:56:55;4.40;86.80
42965;DHT22;28604;51.204;22.552;2023-02-22T04:59:22;4.40;86.20
42965;DHT22;28604;51.204;22.552;2023-02-22T05:01:54;4.40;86.40
42965;DHT22;28604;51.204;22.552;2023-02-22T05:04:20;4.40;86.50
42965;DHT22;28604;51.204;22.552;2023-02-22T05:06:46;4.40;86.80
42965;DHT22;28604;51.204;22.552;2023-02-22T05:09:13;4.40;87.40
42965;DHT22;28604;51.204;22.552;2023-02-22T05:11:39;4.40;87.00
42965;DHT22;28604;51.204;22.552;2023-02-22T05:14:05;4.40;86.50
42965;DHT22;28604;51.204;22.552;2023-02-22T05:16:31;4.40;86.30
42965;DHT22;28604;51.204;22.552;2023-02-22T05:18:57;4.40;86.80
42965;DHT22;28604;51.204;22.552;2023-02-22T05:21:23;4.50;86.20
42965;DHT22;28604;51.204;22.552;2023-02-22T05:23:49;4.40;86.40
42965;DHT22;28604;51.204;22.552;2023-02-22T05:26:15;4.40;87.00
42965;DHT22;28604;51.204;22.552;2023-02-22T05:28:41;4.40;86.20
42965;DHT22;28604;51.204;22.552;2023-02-22T05:31:07;4.50;86.10
42965;DHT22;28604;51.204;22.552;2023-02-22T05:33:33;4.40;87.10
42965;DHT22;28604;51.204;22.552;2023-02-22T05:35:59;4.40;86.10
42965;DHT22;28604;51.204;22.552;2023-02-22T05:38:25;4.50;86.00
42965;DHT22;28604;51.204;22.552;2023-02-22T05:40:51;4.50;86.60
42965;DHT22;28604;51.204;22.552;2023-02-22T05:43:17;4.50;86.20
42965;DHT22;28604;51.204;22.552;2023-02-22T05:45:43;4.40;86.80
42965;DHT22;28604;51.204;22.552;2023-02-22T05:48:09;4.40;85.90
42965;DHT22;28604;51.204;22.552;2023-02-22T05:50:35;4.50;85.70
42965;DHT22;28604;51.204;22.552;2023-02-22T05:53:01;4.50;85.60
42965;DHT22;28604;51.204;22.552;2023-02-22T05:55:27;4.40;85.50
42965;DHT22;28604;51.204;22.552;2023-02-22T05:57:53;4.40;85.50
42965;DHT22;28604;51.204;22.552;2023-02-22T06:00:25;4.40;85.50
42965;DHT22;28604;51.204;22.552;2023-02-22T06:02:56;4.40;86.00
42965;DHT22;28604;51.204;22.552;2023-02-22T06:05:23;4.40;85.60
42965;DHT22;28604;51.204;22.552;2023-02-22T06:07:48;4.50;85.50
42965;DHT22;28604;51.204;22.552;2023-02-22T06:10:15;4.40;86.50
42965;DHT22;28604;51.204;22.552;2023-02-22T06:12:40;4.50;85.70
42965;DHT22;28604;51.204;22.552;2023-02-22T06:15:07;4.30;86.90
42965;DHT22;28604;51.204;22.552;2023-02-22T06:17:32;4.40;85.90
42965;DHT22;28604;51.204;22.552;2023-02-22T06:19:59;4.50;85.80
42965;DHT22;28604;51.204;22.552;2023-02-22T06:22:24;4.50;85.40
42965;DHT22;28604;51.204;22.552;2023-02-22T06:24:51;4.60;85.40
42965;DHT22;28604;51.204;22.552;2023-02-22T06:27:17;4.60;85.70
42965;DHT22;28604;51.204;22.552;2023-02-22T06:29:46;4.70;86.50
42965;DHT22;28604;51.204;22.552;2023-02-22T06:32:13;4.90;86.50
42965;DHT22;28604;51.204;22.552;2023-02-22T06:34:39;5.10;86.60
42965;DHT22;28604;51.204;22.552;2023-02-22T06:37:06;5.30;86.40
42965;DHT22;28604;51.204;22.552;2023-02-22T06:39:33;5.50;85.70
42965;DHT22;28604;51.204;22.552;2023-02-22T06:41:58;5.70;85.30
42965;DHT22;28604;51.204;22.552;2023-02-22T06:44:25;5.90;85.10
42965;DHT22;28604;51.204;22.552;2023-02-22T06:46:51;6.10;84.60
42965;DHT22;28604;51.204;22.552;2023-02-22T06:49:18;6.20;83.70
42965;DHT22;28604;51.204;22.552;2023-02-22T06:51:45;6.30;83.00
42965;DHT22;28604;51.204;22.552;2023-02-22T06:54:11;6.30;82.60
42965;DHT22;28604;51.204;22.552;2023-02-22T06:56:37;6.30;82.10
42965;DHT22;28604;51.204;22.552;2023-02-22T06:59:03;6.30;82.10
42965;DHT22;28604;51.204;22.552;2023-02-22T07:01:30;6.20;81.80
42965;DHT22;28604;51.204;22.552;2023-02-22T07:03:56;6.20;81.80
42965;DHT22;28604;51.204;22.552;2023-02-22T07:06:22;6.20;81.70
42965;DHT22;28604;51.204;22.552;2023-02-22T07:08:48;6.10;81.70
42965;DHT22;28604;51.204;22.552;2023-02-22T07:11:15;6.10;81.70
42965;DHT22;28604;51.204;22.552;2023-02-22T07:13:41;6.10;81.70
42965;DHT22;28604;51.204;22.552;2023-02-22T07:16:07;6.10;81.70
42965;DHT22;28604;51.204;22.552;2023-02-22T07:18:33;6.10;81.90
42965;DHT22;28604;51.204;22.552;2023-02-22T07:20:59;6.10;82.00
42965;DHT22;28604;51.204;22.552;2023-02-22T07:23:25;6.10;81.50
42965;DHT22;28604;51.204;22.552;2023-02-22T07:25:51;6.20;81.50
42965;DHT22;28604;51.204;22.552;2023-02-22T07:28:17;6.20;81.50
42965;DHT22;28604;51.204;22.552;2023-02-22T07:30:43;6.20;81.60
42965;DHT22;28604;51.204;22.552;2023-02-22T07:33:11;6.30;81.90
42965;DHT22;28604;51.204;22.552;2023-02-22T07:35:42;6.40;81.30
42965;DHT22;28604;51.204;22.552;2023-02-22T07:38:08;6.40;80.50
42965;DHT22;28604;51.204;22.552;2023-02-22T07:40:35;6.40;81.10
42965;DHT22;28604;51.204;22.552;2023-02-22T07:43:25;6.50;80.60
42965;DHT22;28604;51.204;22.552;2023-02-22T07:45:53;6.50;80.40
42965;DHT22;28604;51.204;22.552;2023-02-22T07:48:21;6.60;80.70
42965;DHT22;28604;51.204;22.552;2023-02-22T07:50:47;6.70;80.60
42965;DHT22;28604;51.204;22.552;2023-02-22T07:53:16;6.80;80.70
42965;DHT22;28604;51.204;22.552;2023-02-22T07:55:43;6.90;80.10
42965;DHT22;28604;51.204;22.552;2023-02-22T07:58:12;7.00;78.90
42965;DHT22;28604;51.204;22.552;2023-02-22T08:00:40;7.00;78.50
42965;DHT22;28604;51.204;22.552;2023-02-22T08:03:11;7.10;79.10
42965;DHT22;28604;51.204;22.552;2023-02-22T08:05:38;7.20;79.30
42965;DHT22;28604;51.204;22.552;2023-02-22T08:08:06;7.20;78.10
42965;DHT22;28604;51.204;22.552;2023-02-22T08:10:33;7.30;79.10
42965;DHT22;28604;51.204;22.552;2023-02-22T08:13:00;7.40;78.40
42965;DHT22;28604;51.204;22.552;2023-02-22T08:15:32;7.60;78.50
42965;DHT22;28604;51.204;22.552;2023-02-22T08:18:00;7.80;78.50
42965;DHT22;28604;51.204;22.552;2023-02-22T08:20:28;7.90;78.30
42965;DHT22;28604;51.204;22.552;2023-02-22T08:22:54;7.90;77.70
42965;DHT22;28604;51.204;22.552;2023-02-22T08:25:23;8.00;76.60
42965;DHT22;28604;51.204;22.552;2023-02-22T08:27:50;8.00;76.00
42965;DHT22;28604;51.204;22.552;2023-02-22T08:30:19;7.90;76.10
42965;DHT22;28604;51.204;22.552;2023-02-22T08:32:47;7.80;72.70
42965;DHT22;28604;51.204;22.552;2023-02-22T08:35:14;7.70;73.20
42965;DHT22;28604;51.204;22.552;2023-02-22T08:37:42;7.70;75.20
42965;DHT22;28604;51.204;22.552;2023-02-22T08:40:09;7.70;74.70
42965;DHT22;28604;51.204;22.552;2023-02-22T08:42:35;7.70;75.30
42965;DHT22;28604;51.204;22.552;2023-02-22T08:45:01;7.70;74.90
42965;DHT22;28604;51.204;22.552;2023-02-22T08:47:27;7.70;74.60
42965;DHT22;28604;51.204;22.552;2023-02-22T08:49:53;7.70;75.20
42965;DHT22;28604;51.204;22.552;2023-02-22T08:52:20;7.60;75.00
42965;DHT22;28604;51.204;22.552;2023-02-22T08:54:48;7.60;75.20
42965;DHT22;28604;51.204;22.552;2023-02-22T08:57:14;7.60;74.70
42965;DHT22;28604;51.204;22.552;2023-02-22T08:59:40;7.60;74.90
42965;DHT22;28604;51.204;22.552;2023-02-22T09:02:15;7.60;74.80
42965;DHT22;28604;51.204;22.552;2023-02-22T09:04:42;7.60;74.70
42965;DHT22;28604;51.204;22.552;2023-02-22T09:07:08;7.60;74.90
42965;DHT22;28604;51.204;22.552;2023-02-22T09:09:35;7.50;74.10
42965;DHT22;28604;51.204;22.552;2023-02-22T09:12:02;7.50;74.50
42965;DHT22;28604;51.204;22.552;2023-02-22T09:14:28;7.50;74.50
42965;DHT22;28604;51.204;22.552;2023-02-22T09:16:54;7.50;74.70
42965;DHT22;28604;51.204;22.552;2023-02-22T09:19:20;7.50;74.40
42965;DHT22;28604;51.204;22.552;2023-02-22T09:21:55;7.40;74.20
42965;DHT22;28604;51.204;22.552;2023-02-22T09:24:21;7.40;74.60
42965;DHT22;28604;51.204;22.552;2023-02-22T09:26:48;7.40;74.70
42965;DHT22;28604;51.204;22.552;2023-02-22T09:29:23;7.40;75.00
42965;DHT22;28604;51.204;22.552;2023-02-22T09:31:51;7.40;74.80
42965;DHT22;28604;51.204;22.552;2023-02-22T09:34:18;7.40;74.70
42965;DHT22;28604;51.204;22.552;2023-02-22T09:36:46;7.40;74.20
42965;DHT22;28604;51.204;22.552;2023-02-22T09:39:13;7.50;74.30
42965;DHT22;28604;51.204;22.552;2023-02-22T09:42:12;7.50;74.30
42965;DHT22;28604;51.204;22.552;2023-02-22T09:44:51;7.60;74.10
42965;DHT22;28604;51.204;22.552;2023-02-22T10:05:31;7.60;74.40
42965;DHT22;28604;51.204;22.552;2023-02-22T10:08:00;7.60;74.30
42965;DHT22;28604;51.204;22.552;2023-02-22T10:10:34;7.60;74.20
42965;DHT22;28604;51.204;22.552;2023-02-22T10:13:28;7.60;74.10
42965;DHT22;28604;51.204;22.552;2023-02-22T10:16:27;7.50;74.00
42965;DHT22;28604;51.204;22.552;2023-02-22T10:24:48;7.50;74.70
42965;DHT22;28604;51.204;22.552;2023-02-22T10:27:20;7.40;74.60
42965;DHT22;28604;51.204;22.552;2023-02-22T10:32:44;7.30;74.50
42965;DHT22;28604;51.204;22.552;2023-02-22T10:35:29;7.20;74.00
42965;DHT22;28604;51.204;22.552;2023-02-22T10:38:01;7.20;74.60
42965;DHT22;28604;51.204;22.552;2023-02-22T10:40:31;7.20;74.90
42965;DHT22;28604;51.204;22.552;2023-02-22T10:43:04;7.10;75.10
42965;DHT22;28604;51.204;22.552;2023-02-22T10:45:32;7.20;74.90
42965;DHT22;28604;51.204;22.552;2023-02-22T10:48:02;7.20;74.70
42965;DHT22;28604;51.204;22.552;2023-02-22T10:50:35;7.20;74.70
42965;DHT22;28604;51.204;22.552;2023-02-22T10:53:02;7.20;74.80
42965;DHT22;28604;51.204;22.552;2023-02-22T10:55:28;7.20;75.10
42965;DHT22;28604;51.204;22.552;2023-02-22T10:58:06;7.20;74.90
42965;DHT22;28604;51.204;22.552;2023-02-22T11:00:35;7.20;74.90
42965;DHT22;28604;51.204;22.552;2023-02-22T11:03:15;7.20;74.90
42965;DHT22;28604;51.204;22.552;2023-02-22T11:05:43;7.20;74.80
42965;DHT22;28604;51.204;22.552;2023-02-22T11:10:56;7.10;75.30
42965;DHT22;28604;51.204;22.552;2023-02-22T11:13:30;7.10;75.60
42965;DHT22;28604;51.204;22.552;2023-02-22T11:16:01;6.90;74.30
42965;DHT22;28604;51.204;22.552;2023-02-22T11:18:32;6.90;76.00
42965;DHT22;28604;51.204;22.552;2023-02-22T11:21:06;6.90;76.00
42965;DHT22;28604;51.204;22.552;2023-02-22T11:23:34;6.90;75.80
42965;DHT22;28604;51.204;22.552;2023-02-22T11:26:22;6.90;75.70
42965;DHT22;28604;51.204;22.552;2023-02-22T11:28:52;6.90;76.10
42965;DHT22;28604;51.204;22.552;2023-02-22T11:31:23;6.90;75.90
42965;DHT22;28604;51.204;22.552;2023-02-22T11:34:01;6.80;75.60
42965;DHT22;28604;51.204;22.552;2023-02-22T11:36:37;6.90;75.80
42965;DHT22;28604;51.204;22.552;2023-02-22T11:39:20;6.80;75.10
42965;DHT22;28604;51.204;22.552;2023-02-22T11:41:46;6.80;75.50
42965;DHT22;28604;51.204;22.552;2023-02-22T11:44:25;6.80;75.80
42965;DHT22;28604;51.204;22.552;2023-02-22T11:46:54;6.80;75.20
42965;DHT22;28604;51.204;22.552;2023-02-22T11:49:34;6.80;75.30
42965;DHT22;28604;51.204;22.552;2023-02-22T12:00:20;7.00;72.90
42965;DHT22;28604;51.204;22.552;2023-02-22T12:05:50;7.00;71.80
42965;DHT22;28604;51.204;22.552;2023-02-22T12:09:34;7.10;71.40
42965;DHT22;28604;51.204;22.552;2023-02-22T12:12:01;7.10;72.30
42965;DHT22;28604;51.204;22.552;2023-02-22T12:14:54;7.10;72.00
42965;DHT22;28604;51.204;22.552;2023-02-22T12:19:50;7.20;72.10
42965;DHT22;28604;51.204;22.552;2023-02-22T12:22:26;7.10;71.50
42965;DHT22;28604;51.204;22.552;2023-02-22T12:27:37;7.10;72.10
42965;DHT22;28604;51.204;22.552;2023-02-22T12:32:42;7.00;71.90
42965;DHT22;28604;51.204;22.552;2023-02-22T12:35:15;6.90;72.10
42965;DHT22;28604;51.204;22.552;2023-02-22T12:38:13;6.80;72.80
42965;DHT22;28604;51.204;22.552;2023-02-22T12:46:14;6.50;73.30
42965;DHT22;28604;51.204;22.552;2023-02-22T12:51:18;6.30;74.00
42965;DHT22;28604;51.204;22.552;2023-02-22T12:54:04;6.10;73.20
42965;DHT22;28604;51.204;22.552;2023-02-22T12:56:38;6.10;74.10
42965;DHT22;28604;51.204;22.552;2023-02-22T12:59:28;6.20;74.00
42965;DHT22;28604;51.204;22.552;2023-02-22T13:02:02;6.00;73.50
42965;DHT22;28604;51.204;22.552;2023-02-22T13:04:29;6.00;74.30
42965;DHT22;28604;51.204;22.552;2023-02-22T13:13:04;5.80;73.40
42965;DHT22;28604;51.204;22.552;2023-02-22T13:18:44;5.80;72.80
42965;DHT22;28604;51.204;22.552;2023-02-22T13:26:37;5.60;71.90
42965;DHT22;28604;51.204;22.552;2023-02-22T13:29:12;5.60;72.50
42965;DHT22;28604;51.204;22.552;2023-02-22T13:39:58;5.40;71.70
42965;DHT22;28604;51.204;22.552;2023-02-22T14:03:04;5.20;71.10
42965;DHT22;28604;51.204;22.552;2023-02-22T14:17:21;5.10;71.00
42965;DHT22;28604;51.204;22.552;2023-02-22T14:20:01;5.10;69.40
42965;DHT22;28604;51.204;22.552;2023-02-22T14:22:29;5.00;70.40
42965;DHT22;28604;51.204;22.552;2023-02-22T14:24:56;4.90;69.50
42965;DHT22;28604;51.204;22.552;2023-02-22T14:27:22;4.90;70.90
42965;DHT22;28604;51.204;22.552;2023-02-22T14:30:00;4.80;69.30
42965;DHT22;28604;51.204;22.552;2023-02-22T14:32:33;4.70;68.90
42965;DHT22;28604;51.204;22.552;2023-02-22T14:35:04;4.70;70.60
42965;DHT22;28604;51.204;22.552;2023-02-22T14:37:37;4.80;70.80
42965;DHT22;28604;51.204;22.552;2023-02-22T14:40:21;4.70;70.40
42965;DHT22;28604;51.204;22.552;2023-02-22T14:45:32;4.80;71.50
42965;DHT22;28604;51.204;22.552;2023-02-22T14:50:48;4.70;70.90
42965;DHT22;28604;51.204;22.552;2023-02-22T14:53:23;4.70;71.20
42965;DHT22;28604;51.204;22.552;2023-02-22T14:56:00;4.60;69.90
42965;DHT22;28604;51.204;22.552;2023-02-22T14:58:52;4.60;69.90
42965;DHT22;28604;51.204;22.552;2023-02-22T15:01:33;4.50;68.90
42965;DHT22;28604;51.204;22.552;2023-02-22T15:04:22;4.40;69.40
42965;DHT22;28604;51.204;22.552;2023-02-22T15:06:52;4.40;68.90
42965;DHT22;28604;51.204;22.552;2023-02-22T15:09:27;4.40;70.60
42965;DHT22;28604;51.204;22.552;2023-02-22T15:12:10;4.40;70.50
42965;DHT22;28604;51.204;22.552;2023-02-22T15:14:38;4.50;71.00
42965;DHT22;28604;51.204;22.552;2023-02-22T15:17:24;4.50;71.20
42965;DHT22;28604;51.204;22.552;2023-02-22T15:19:50;4.50;71.50
42965;DHT22;28604;51.204;22.552;2023-02-22T15:22:23;4.50;71.40
42965;DHT22;28604;51.204;22.552;2023-02-22T15:24:57;4.50;71.00
42965;DHT22;28604;51.204;22.552;2023-02-22T15:27:23;4.50;69.90
42965;DHT22;28604;51.204;22.552;2023-02-22T15:29:57;4.50;70.50
42965;DHT22;28604;51.204;22.552;2023-02-22T15:32:31;4.50;70.80
42965;DHT22;28604;51.204;22.552;2023-02-22T15:35:28;4.50;71.10
42965;DHT22;28604;51.204;22.552;2023-02-22T15:38:14;4.50;70.90
42965;DHT22;28604;51.204;22.552;2023-02-22T15:40:42;4.50;72.00
42965;DHT22;28604;51.204;22.552;2023-02-22T15:43:21;4.40;72.60
42965;DHT22;28604;51.204;22.552;2023-02-22T15:45:49;4.40;72.60
42965;DHT22;28604;51.204;22.552;2023-02-22T15:48:16;4.40;73.20
42965;DHT22;28604;51.204;22.552;2023-02-22T15:53:45;4.40;73.40
42965;DHT22;28604;51.204;22.552;2023-02-22T15:56:24;4.40;73.70
42965;DHT22;28604;51.204;22.552;2023-02-22T15:59:02;4.40;74.30
42965;DHT22;28604;51.204;22.552;2023-02-22T16:01:39;4.30;74.20
42965;DHT22;28604;51.204;22.552;2023-02-22T16:04:18;4.30;74.40
42965;DHT22;28604;51.204;22.552;2023-02-22T16:06:46;4.30;74.40
42965;DHT22;28604;51.204;22.552;2023-02-22T16:09:23;4.30;74.80
42965;DHT22;28604;51.204;22.552;2023-02-22T16:12:22;4.30;74.70
42965;DHT22;28604;51.204;22.552;2023-02-22T16:14:48;4.20;74.80
42965;DHT22;28604;51.204;22.552;2023-02-22T16:19:51;4.10;74.80
42965;DHT22;28604;51.204;22.552;2023-02-22T16:22:36;4.10;74.70
42965;DHT22;28604;51.204;22.552;2023-02-22T16:27:55;4.10;74.70
42965;DHT22;28604;51.204;22.552;2023-02-22T16:30:37;4.10;74.50
42965;DHT22;28604;51.204;22.552;2023-02-22T16:33:06;4.10;74.50
42965;DHT22;28604;51.204;22.552;2023-02-22T16:35:39;4.10;74.60
42965;DHT22;28604;51.204;22.552;2023-02-22T16:38:09;4.10;74.50
42965;DHT22;28604;51.204;22.552;2023-02-22T16:40:48;4.10;74.80
42965;DHT22;28604;51.204;22.552;2023-02-22T16:43:28;4.00;74.60
42965;DHT22;28604;51.204;22.552;2023-02-22T16:45:58;4.00;74.40
42965;DHT22;28604;51.204;22.552;2023-02-22T16:48:28;4.00;74.50
42965;DHT22;28604;51.204;22.552;2023-02-22T16:50:59;4.00;74.80
42965;DHT22;28604;51.204;22.552;2023-02-22T16:53:29;4.00;74.80
42965;DHT22;28604;51.204;22.552;2023-02-22T16:56:01;3.90;74.80
42965;DHT22;28604;51.204;22.552;2023-02-22T16:58:28;3.90;75.00
42965;DHT22;28604;51.204;22.552;2023-02-22T17:00:57;3.90;75.70
42965;DHT22;28604;51.204;22.552;2023-02-22T17:03:24;3.90;75.80
42965;DHT22;28604;51.204;22.552;2023-02-22T17:05:50;3.80;75.70
42965;DHT22;28604;51.204;22.552;2023-02-22T17:08:16;3.80;75.90
42965;DHT22;28604;51.204;22.552;2023-02-22T17:10:43;3.80;75.60
42965;DHT22;28604;51.204;22.552;2023-02-22T17:13:11;3.80;75.70
42965;DHT22;28604;51.204;22.552;2023-02-22T17:15:37;3.70;75.80
42965;DHT22;28604;51.204;22.552;2023-02-22T17:18:11;3.70;76.10
42965;DHT22;28604;51.204;22.552;2023-02-22T17:20:42;3.60;75.60
42965;DHT22;28604;51.204;22.552;2023-02-22T17:23:11;3.60;75.40
42965;DHT22;28604;51.204;22.552;2023-02-22T17:28:22;3.60;75.30
42965;DHT22;28604;51.204;22.552;2023-02-22T17:30:50;3.50;75.60
42965;DHT22;28604;51.204;22.552;2023-02-22T17:33:19;3.60;75.60
42965;DHT22;28604;51.204;22.552;2023-02-22T17:35:46;3.50;75.80
42965;DHT22;28604;51.204;22.552;2023-02-22T17:38:13;3.50;76.10
42965;DHT22;28604;51.204;22.552;2023-02-22T17:40:44;3.40;76.50
42965;DHT22;28604;51.204;22.552;2023-02-22T17:43:17;3.40;76.70
42965;DHT22;28604;51.204;22.552;2023-02-22T17:45:44;3.40;76.30
42965;DHT22;28604;51.204;22.552;2023-02-22T17:48:11;3.40;76.40
42965;DHT22;28604;51.204;22.552;2023-02-22T17:50:39;3.40;76.30
42965;DHT22;28604;51.204;22.552;2023-02-22T17:53:05;3.40;76.10
42965;DHT22;28604;51.204;22.552;2023-02-22T17:55:32;3.30;76.20
42965;DHT22;28604;51.204;22.552;2023-02-22T17:58:00;3.30;76.40
42965;DHT22;28604;51.204;22.552;2023-02-22T18:00:28;3.30;76.50
42965;DHT22;28604;51.204;22.552;2023-02-22T18:03:04;3.20;76.30
42965;DHT22;28604;51.204;22.552;2023-02-22T18:05:32;3.20;76.30
42965;DHT22;28604;51.204;22.552;2023-02-22T18:07:58;3.20;76.50
42965;DHT22;28604;51.204;22.552;2023-02-22T18:10:25;3.20;76.10
42965;DHT22;28604;51.204;22.552;2023-02-22T18:12:52;3.20;76.00
42965;DHT22;28604;51.204;22.552;2023-02-22T18:15:18;3.10;76.60
42965;DHT22;28604;51.204;22.552;2023-02-22T18:17:46;3.10;77.10
42965;DHT22;28604;51.204;22.552;2023-02-22T18:20:14;3.00;76.60
42965;DHT22;28604;51.204;22.552;2023-02-22T18:22:41;3.00;76.50
42965;DHT22;28604;51.204;22.552;2023-02-22T18:25:09;3.00;76.50
42965;DHT22;28604;51.204;22.552;2023-02-22T18:27:36;3.00;76.40